Time;durP1;ratioP1;P1;durP2;ratioP2;P2;SDS_P1;SDS_P2;PMS_P1;PMS_P2;Temp;Humidity;BMP_temperature;BMP_pressure;BME280_temperature;BME280_humidity;BME280_pressure;Samples;Min_cycle;Max_cycle;Signal;HPM_P1;HPM_P2
2023/04/17 00:00:23;;;;;;;4.90;2.20;;;10.30;99.90;;;;;;4079410;29;20081;-59
2023/04/17 00:02:25;;;;;;;3.77;2.73;;;10.30;99.90;;;;;;4079298;28;20093;-61
2023/04/17 00:04:26;;;;;;;6.53;2.87;;;10.30;99.90;;;;;;4079524;29;20032;-61
2023/04/17 00:06:27;;;;;;;3.63;2.30;;;10.30;99.90;;;;;;4078488;29;20027;-59
2023/04/17 00:08:28;;;;;;;3.53;1.80;;;10.30;99.90;;;;;;4063374;28;20060;-61
2023/04/17 00:10:30;;;;;;;3.03;2.30;;;10.30;99.90;;;;;;4077559;29;20044;-61
2023/04/17 00:12:31;;;;;;;3.73;2.30;;;10.30;99.90;;;;;;4079932;28;20090;-66
2023/04/17 00:14:32;;;;;;;4.53;2.70;;;10.30;99.90;;;;;;4079164;28;20044;-64
2023/04/17 00:16:33;;;;;;;4.97;2.00;;;10.30;99.90;;;;;;4079408;29;20048;-61
2023/04/17 00:18:35;;;;;;;2.87;2.03;;;10.30;99.90;;;;;;4077833;29;20035;-62
2023/04/17 00:20:36;;;;;;;3.17;2.10;;;10.30;99.90;;;;;;4078904;29;20361;-60
2023/04/17 00:22:38;;;;;;;6.47;2.57;;;10.30;99.90;;;;;;4078296;29;20039;-61
2023/04/17 00:24:39;;;;;;;3.10;2.13;;;10.40;99.90;;;;;;4078690;29;20036;-61
2023/04/17 00:26:40;;;;;;;3.10;2.17;;;10.40;99.90;;;;;;4079361;28;20048;-61
2023/04/17 00:28:41;;;;;;;2.30;1.80;;;10.40;99.90;;;;;;4078022;29;20085;-60
2023/04/17 00:30:42;;;;;;;2.70;2.03;;;10.40;99.90;;;;;;4078755;29;20040;-62
2023/04/17 00:32:43;;;;;;;2.47;2.00;;;10.40;99.90;;;;;;4078814;28;20551;-60
2023/04/17 00:34:44;;;;;;;4.53;2.53;;;10.40;99.90;;;;;;4079005;29;20067;-59
2023/04/17 00:36:46;;;;;;;3.00;2.23;;;10.40;99.90;;;;;;4077958;29;20086;-59
2023/04/17 00:38:47;;;;;;;3.97;1.80;;;10.40;99.90;;;;;;4078502;29;20078;-61
2023/04/17 00:40:50;;;;;;;3.17;2.50;;;10.40;99.90;;;;;;4078569;28;20036;-61
2023/04/17 00:42:54;;;;;;;2.77;2.50;;;10.50;99.90;;;;;;4079092;29;20043;-61
2023/04/17 00:44:56;;;;;;;3.60;2.40;;;10.50;99.90;;;;;;4077907;29;20435;-60
2023/04/17 00:46:57;;;;;;;3.80;2.83;;;10.50;99.90;;;;;;4079054;29;20471;-59
2023/04/17 00:49:00;;;;;;;4.73;3.50;;;10.50;99.90;;;;;;4078745;28;20070;-61
2023/04/17 00:51:02;;;;;;;4.40;3.13;;;10.50;99.90;;;;;;4078824;29;20427;-61
2023/04/17 00:53:03;;;;;;;4.57;3.10;;;10.50;99.90;;;;;;4077813;29;20111;-61
2023/04/17 00:55:05;;;;;;;4.43;3.37;;;10.50;99.90;;;;;;4077996;29;20041;-61
2023/04/17 00:57:06;;;;;;;6.03;3.47;;;10.50;99.90;;;;;;4079287;29;20106;-59
2023/04/17 00:59:15;;;;;;;5.77;3.37;;;10.50;99.90;;;;;;4081027;29;20500;-62
2023/04/17 01:01:16;;;;;;;4.33;3.00;;;10.50;99.90;;;;;;4081131;29;20058;-60
2023/04/17 01:03:18;;;;;;;6.07;3.53;;;10.40;99.90;;;;;;4081683;28;20090;-61
2023/04/17 01:05:19;;;;;;;4.10;3.30;;;10.50;99.90;;;;;;4082243;28;20055;-61
2023/04/17 01:07:21;;;;;;;5.90;3.43;;;10.40;99.90;;;;;;4080766;28;20052;-60
2023/04/17 01:09:22;;;;;;;5.03;3.83;;;10.40;99.90;;;;;;4080200;29;20032;-63
2023/04/17 01:11:23;;;;;;;4.17;3.10;;;10.50;99.90;;;;;;4080483;29;20086;-60
2023/04/17 01:13:24;;;;;;;4.97;3.27;;;10.50;99.90;;;;;;4081549;29;20078;-61
2023/04/17 01:15:26;;;;;;;6.07;3.77;;;10.50;99.90;;;;;;4080306;29;20487;-60
2023/04/17 01:17:27;;;;;;;4.40;3.20;;;10.40;99.90;;;;;;4081572;29;20035;-61
2023/04/17 01:19:29;;;;;;;5.60;3.70;;;10.50;99.90;;;;;;4081365;28;20040;-61
2023/04/17 01:21:31;;;;;;;4.77;3.47;;;10.50;99.90;;;;;;4080869;29;20102;-59
2023/04/17 01:23:50;;;;;;;7.17;3.57;;;10.50;99.90;;;;;;4080187;29;20086;-60
2023/04/17 01:25:52;;;;;;;5.40;3.40;;;10.50;99.90;;;;;;4081283;28;20094;-66
2023/04/17 01:27:53;;;;;;;5.43;3.70;;;10.50;99.90;;;;;;4080388;29;20276;-60
2023/04/17 01:29:55;;;;;;;5.47;3.50;;;10.50;99.90;;;;;;4081223;29;20040;-59
2023/04/17 01:31:56;;;;;;;4.67;3.50;;;10.50;99.90;;;;;;4080501;29;20035;-60
2023/04/17 01:33:59;;;;;;;4.03;3.43;;;10.50;99.90;;;;;;4080455;29;20040;-66
2023/04/17 01:36:00;;;;;;;5.97;3.77;;;10.50;99.90;;;;;;4080510;29;20640;-60
2023/04/17 01:38:01;;;;;;;5.47;3.40;;;10.50;99.90;;;;;;4080544;29;20054;-61
2023/04/17 01:40:06;;;;;;;6.20;3.70;;;10.50;99.90;;;;;;4082089;28;20039;-60
2023/04/17 01:42:07;;;;;;;5.17;3.67;;;10.50;99.90;;;;;;4079699;29;20044;-60
2023/04/17 01:44:08;;;;;;;5.17;3.83;;;10.60;99.90;;;;;;4081916;28;20089;-61
2023/04/17 01:46:10;;;;;;;5.30;3.90;;;10.50;99.90;;;;;;4080055;29;20074;-60
2023/04/17 01:48:11;;;;;;;5.17;3.50;;;10.50;99.90;;;;;;4081198;29;20040;-60
2023/04/17 01:50:12;;;;;;;5.43;3.80;;;10.40;99.90;;;;;;4079990;29;20040;-59
2023/04/17 01:52:13;;;;;;;4.03;3.40;;;10.50;99.90;;;;;;4081261;29;20111;-59
2023/04/17 01:54:14;;;;;;;3.83;3.33;;;10.40;99.90;;;;;;4079969;29;20059;-59
2023/04/17 01:56:16;;;;;;;4.23;3.50;;;10.40;99.90;;;;;;4080999;29;20094;-60
2023/04/17 01:58:18;;;;;;;8.23;3.70;;;10.40;99.90;;;;;;4080001;29;20039;-60
2023/04/17 02:00:19;;;;;;;6.67;4.40;;;10.40;99.90;;;;;;4081070;29;20032;-60
2023/04/17 02:02:20;;;;;;;6.70;4.70;;;10.40;99.90;;;;;;4079438;29;20048;-59
2023/04/17 02:04:21;;;;;;;5.17;4.30;;;10.40;99.90;;;;;;4080695;29;20028;-59
2023/04/17 02:06:23;;;;;;;9.30;5.07;;;10.40;99.90;;;;;;4080988;28;20047;-59
2023/04/17 02:08:24;;;;;;;6.97;4.83;;;10.40;99.90;;;;;;4079907;28;20060;-62
2023/04/17 02:10:25;;;;;;;8.57;5.60;;;10.30;99.90;;;;;;4080572;29;20027;-59
2023/04/17 02:12:26;;;;;;;7.77;4.40;;;10.30;99.90;;;;;;4079420;29;20047;-60
2023/04/17 02:14:29;;;;;;;7.73;4.17;;;10.30;99.90;;;;;;4080256;29;20040;-57
2023/04/17 02:16:30;;;;;;;8.87;4.83;;;10.30;99.90;;;;;;4079807;29;20036;-59
2023/04/17 02:18:31;;;;;;;5.90;4.47;;;10.30;99.90;;;;;;4080870;29;20082;-60
2023/04/17 02:20:33;;;;;;;6.93;4.50;;;10.30;99.90;;;;;;4079573;29;20023;-60
2023/04/17 02:22:34;;;;;;;5.00;3.40;;;10.30;99.90;;;;;;4080723;29;20036;-59
2023/04/17 02:24:35;;;;;;;6.53;4.50;;;10.30;99.90;;;;;;4079110;29;20565;-59
2023/04/17 02:26:36;;;;;;;7.07;4.30;;;10.20;99.90;;;;;;4080758;29;20086;-63
2023/04/17 02:28:38;;;;;;;7.23;4.60;;;10.20;99.90;;;;;;4079506;29;20435;-60
2023/04/17 02:30:39;;;;;;;7.40;4.70;;;10.20;99.90;;;;;;4063508;29;20562;-59
2023/04/17 02:32:40;;;;;;;6.27;3.93;;;10.20;99.90;;;;;;4079356;29;20023;-61
2023/04/17 02:34:42;;;;;;;4.47;3.87;;;10.20;99.90;;;;;;4080255;29;20036;-61
2023/04/17 02:36:43;;;;;;;6.90;4.17;;;10.10;99.90;;;;;;4080360;28;20098;-59
2023/04/17 02:38:44;;;;;;;6.30;3.70;;;10.10;99.90;;;;;;4080779;28;20070;-59
2023/04/17 02:40:45;;;;;;;6.90;4.07;;;10.10;99.90;;;;;;4080095;29;20431;-58
2023/04/17 02:42:46;;;;;;;6.33;4.07;;;10.10;99.90;;;;;;4079470;29;20036;-59
2023/04/17 02:44:47;;;;;;;6.77;3.90;;;10.10;99.90;;;;;;4080265;29;20427;-57
2023/04/17 02:46:48;;;;;;;6.87;4.47;;;10.10;99.90;;;;;;4079486;29;20098;-61
2023/04/17 02:48:50;;;;;;;4.97;3.43;;;10.10;99.90;;;;;;4080380;29;20058;-60
2023/04/17 02:50:51;;;;;;;6.13;4.30;;;10.10;99.90;;;;;;4079293;29;20488;-59
2023/04/17 02:52:52;;;;;;;6.13;3.77;;;10.10;99.90;;;;;;4080272;29;20082;-61
2023/04/17 02:54:53;;;;;;;5.90;4.10;;;10.20;99.90;;;;;;4079314;29;20032;-68
2023/04/17 02:56:57;;;;;;;6.93;3.87;;;10.20;99.90;;;;;;4081077;28;20048;-59
2023/04/17 02:58:58;;;;;;;4.50;3.60;;;10.20;99.90;;;;;;4080073;28;20149;-61
2023/04/17 03:01:02;;;;;;;4.60;3.90;;;10.20;99.90;;;;;;4080325;29;20035;-59
2023/04/17 03:03:03;;;;;;;5.10;3.87;;;10.20;99.90;;;;;;4079161;29;20742;-60
2023/04/17 03:05:05;;;;;;;4.57;3.20;;;10.30;99.90;;;;;;4080245;29;20039;-61
2023/04/17 03:07:08;;;;;;;5.27;3.93;;;10.30;99.90;;;;;;4079091;29;20098;-61
2023/04/17 03:09:14;;;;;;;5.03;3.47;;;10.30;99.90;;;;;;4079602;29;20078;-60
2023/04/17 03:11:15;;;;;;;5.07;3.73;;;10.40;99.90;;;;;;4063454;28;20447;-61
2023/04/17 03:13:16;;;;;;;6.17;3.93;;;10.40;99.90;;;;;;4079574;29;20032;-69
2023/04/17 03:15:18;;;;;;;5.57;3.80;;;10.40;99.90;;;;;;4079765;29;20032;-59
2023/04/17 03:17:22;;;;;;;5.07;4.23;;;10.40;99.90;;;;;;4079172;29;20121;-61
2023/04/17 03:19:23;;;;;;;4.67;3.47;;;10.50;99.90;;;;;;4079346;29;20546;-61
2023/04/17 03:21:25;;;;;;;3.97;3.40;;;10.50;99.90;;;;;;4079038;29;20081;-61
2023/04/17 03:23:26;;;;;;;5.53;4.27;;;10.40;99.90;;;;;;4079855;29;20102;-61
2023/04/17 03:25:27;;;;;;;5.37;4.33;;;10.40;99.90;;;;;;4078827;29;20040;-61
2023/04/17 03:27:29;;;;;;;5.63;3.83;;;10.40;99.90;;;;;;4079473;29;20168;-61
2023/04/17 03:29:30;;;;;;;7.30;4.87;;;10.30;99.90;;;;;;4078842;29;20040;-60
2023/04/17 03:31:31;;;;;;;6.73;4.37;;;10.30;99.90;;;;;;4079919;29;20016;-62
2023/04/17 03:33:32;;;;;;;6.53;4.37;;;10.30;99.90;;;;;;4078805;29;20082;-60
2023/04/17 03:35:33;;;;;;;5.47;4.23;;;10.30;99.90;;;;;;4080046;29;20027;-61
2023/04/17 03:37:35;;;;;;;6.53;4.50;;;10.30;99.90;;;;;;4078819;29;20078;-61
2023/04/17 03:39:36;;;;;;;5.70;4.63;;;10.20;99.90;;;;;;4079051;29;20086;-60
2023/04/17 03:41:37;;;;;;;7.77;4.60;;;10.20;99.90;;;;;;4079028;29;20057;-59
2023/04/17 03:43:38;;;;;;;7.87;5.10;;;10.20;99.90;;;;;;4079351;29;20031;-70
2023/04/17 03:45:39;;;;;;;11.00;5.87;;;10.20;99.90;;;;;;4078831;29;20078;-62
2023/04/17 03:47:41;;;;;;;8.93;5.10;;;10.10;99.90;;;;;;4078769;29;20081;-59
2023/04/17 03:49:42;;;;;;;8.30;5.60;;;10.10;99.90;;;;;;4079555;29;20035;-60
2023/04/17 03:51:43;;;;;;;8.23;5.43;;;10.20;99.90;;;;;;4078456;29;20023;-60
2023/04/17 03:53:44;;;;;;;7.87;5.90;;;10.10;99.90;;;;;;4079551;29;20024;-65
2023/04/17 03:55:45;;;;;;;10.53;6.13;;;10.20;99.90;;;;;;4078391;29;20081;-66
2023/04/17 03:57:48;;;;;;;9.03;5.73;;;10.20;99.90;;;;;;4079147;29;20129;-60
2023/04/17 03:59:49;;;;;;;8.90;6.07;;;10.20;99.90;;;;;;4078491;29;20472;-60
2023/04/17 04:01:52;;;;;;;10.00;5.93;;;10.30;99.90;;;;;;4079587;29;20028;-61
2023/04/17 04:03:54;;;;;;;8.97;5.27;;;10.30;99.90;;;;;;4078214;29;20089;-61
2023/04/17 04:05:55;;;;;;;9.90;6.40;;;10.30;99.90;;;;;;4080311;28;20065;-64
2023/04/17 04:07:56;;;;;;;6.83;5.17;;;10.30;99.90;;;;;;4077986;28;20051;-64
2023/04/17 04:09:57;;;;;;;7.23;4.97;;;10.40;99.90;;;;;;4079213;29;20036;-60
2023/04/17 04:11:59;;;;;;;8.50;5.20;;;10.40;99.90;;;;;;4078086;29;20081;-61
2023/04/17 04:14:00;;;;;;;7.97;5.40;;;10.40;99.90;;;;;;4079039;29;20040;-61
2023/04/17 04:16:01;;;;;;;8.17;5.30;;;10.40;99.90;;;;;;4078732;29;20102;-61
2023/04/17 04:18:02;;;;;;;7.40;5.07;;;10.40;99.90;;;;;;4078668;29;20376;-61
2023/04/17 04:20:07;;;;;;;6.83;4.43;;;10.50;99.90;;;;;;4079025;29;20032;-61
2023/04/17 04:22:09;;;;;;;7.87;5.40;;;10.50;99.90;;;;;;4078272;29;20085;-61
2023/04/17 04:24:12;;;;;;;8.40;5.70;;;10.50;99.90;;;;;;4079166;29;20081;-61
2023/04/17 04:26:13;;;;;;;6.40;4.60;;;10.40;99.90;;;;;;4078218;29;20501;-61
2023/04/17 04:28:14;;;;;;;7.70;5.03;;;10.40;99.90;;;;;;4079204;29;20098;-60
2023/04/17 04:30:15;;;;;;;8.20;5.03;;;10.50;99.90;;;;;;4078088;29;20070;-60
2023/04/17 04:32:17;;;;;;;10.03;5.37;;;10.50;99.90;;;;;;4078230;29;20036;-61
2023/04/17 04:34:18;;;;;;;10.27;6.20;;;10.40;99.90;;;;;;4078050;29;20032;-60
2023/04/17 04:36:19;;;;;;;9.10;6.07;;;10.40;99.90;;;;;;4079176;29;20036;-63
2023/04/17 04:38:28;;;;;;;9.43;6.37;;;10.50;99.90;;;;;;4077914;29;20074;-60
2023/04/17 04:40:34;;;;;;;8.07;5.67;;;10.50;99.90;;;;;;4079144;29;20142;-61
2023/04/17 04:42:38;;;;;;;12.13;5.63;;;10.50;99.90;;;;;;4078014;29;20137;-61
2023/04/17 04:44:39;;;;;;;8.33;5.73;;;10.60;99.90;;;;;;4079068;29;20035;-62
2023/04/17 04:46:40;;;;;;;6.83;5.30;;;10.50;99.90;;;;;;4077299;29;20032;-61
2023/04/17 04:48:41;;;;;;;7.87;5.87;;;10.60;99.90;;;;;;4078400;29;20036;-61
2023/04/17 04:50:43;;;;;;;7.50;5.67;;;10.50;99.90;;;;;;4078279;29;20082;-61
2023/04/17 04:52:44;;;;;;;9.10;5.90;;;10.60;99.90;;;;;;4077416;29;20094;-61
2023/04/17 04:54:45;;;;;;;7.13;5.40;;;10.60;99.90;;;;;;4078534;29;20016;-59
2023/04/17 04:56:46;;;;;;;9.53;5.43;;;10.70;99.90;;;;;;4077514;29;20044;-62
2023/04/17 04:58:48;;;;;;;8.13;5.77;;;10.60;99.90;;;;;;4078796;29;20039;-61
2023/04/17 05:00:49;;;;;;;8.30;5.80;;;10.70;99.90;;;;;;4077996;29;20066;-60
2023/04/17 05:02:50;;;;;;;11.00;5.77;;;10.70;99.90;;;;;;4079007;29;20422;-59
2023/04/17 05:04:51;;;;;;;11.50;6.67;;;10.70;99.90;;;;;;4077828;29;20036;-59
2023/04/17 05:06:53;;;;;;;8.87;5.33;;;10.70;99.90;;;;;;4078763;28;20024;-61
2023/04/17 05:08:54;;;;;;;10.70;6.33;;;10.70;99.90;;;;;;4077724;29;20133;-59
2023/04/17 05:10:55;;;;;;;9.20;6.53;;;10.60;99.90;;;;;;4079753;28;20385;-60
2023/04/17 05:12:56;;;;;;;8.97;5.67;;;10.60;99.90;;;;;;4077790;29;20471;-60
2023/04/17 05:14:58;;;;;;;7.50;5.60;;;10.60;99.90;;;;;;4078769;29;20035;-60
2023/04/17 05:17:00;;;;;;;7.37;4.87;;;10.60;99.90;;;;;;4076964;29;20110;-60
2023/04/17 05:19:01;;;;;;;7.33;5.03;;;10.60;99.90;;;;;;4078447;29;20036;-57
2023/04/17 05:21:02;;;;;;;8.97;5.67;;;10.60;99.90;;;;;;4077989;29;20357;-60
2023/04/17 05:23:03;;;;;;;10.77;6.37;;;10.70;99.90;;;;;;4077960;29;20368;-70
2023/04/17 05:25:05;;;;;;;8.50;5.53;;;10.70;99.90;;;;;;4078950;28;20484;-58
2023/04/17 05:27:06;;;;;;;7.70;5.47;;;10.70;99.90;;;;;;4077459;29;20098;-60
2023/04/17 05:29:07;;;;;;;5.00;4.17;;;10.70;99.90;;;;;;4078624;29;20093;-60
2023/04/17 05:31:09;;;;;;;6.10;4.60;;;10.70;99.90;;;;;;4077516;29;20032;-59
2023/04/17 05:33:10;;;;;;;8.80;4.80;;;10.70;99.90;;;;;;4079259;28;20031;-59
2023/04/17 05:35:11;;;;;;;6.20;4.27;;;10.80;99.90;;;;;;4078067;28;20036;-60
2023/04/17 05:37:12;;;;;;;6.83;4.80;;;10.80;99.90;;;;;;4079014;28;20105;-60
2023/04/17 05:39:13;;;;;;;4.60;4.10;;;10.80;99.90;;;;;;4076589;29;20512;-57
2023/04/17 05:41:14;;;;;;;5.80;4.20;;;10.90;99.90;;;;;;4079169;28;20487;-60
2023/04/17 05:43:16;;;;;;;5.97;4.20;;;10.90;99.90;;;;;;4078357;29;20077;-60
2023/04/17 05:45:17;;;;;;;8.67;4.07;;;10.90;99.90;;;;;;4082028;28;20036;-60
2023/04/17 05:47:18;;;;;;;5.77;4.07;;;10.90;99.90;;;;;;4080794;28;20051;-58
2023/04/17 05:49:19;;;;;;;5.90;4.73;;;10.90;99.90;;;;;;4081617;28;20442;-67
2023/04/17 05:51:20;;;;;;;7.20;5.43;;;11.00;99.90;;;;;;4080970;28;20048;-60
2023/04/17 05:53:21;;;;;;;8.90;4.93;;;11.00;99.90;;;;;;4079734;29;20087;-61
2023/04/17 05:55:23;;;;;;;6.53;4.60;;;11.00;99.90;;;;;;4080643;29;20031;-58
2023/04/17 05:57:24;;;;;;;6.00;4.37;;;11.00;99.90;;;;;;4080920;28;20047;-60
2023/04/17 05:59:26;;;;;;;6.57;4.37;;;11.00;99.90;;;;;;4080380;29;20047;-62
2023/04/17 06:01:28;;;;;;;6.27;4.73;;;11.00;99.90;;;;;;4079961;29;20073;-60
2023/04/17 06:03:30;;;;;;;5.90;4.73;;;11.00;99.90;;;;;;4080517;29;20448;-61
2023/04/17 06:05:31;;;;;;;8.00;4.97;;;11.00;99.90;;;;;;4079896;29;20039;-60
2023/04/17 06:07:33;;;;;;;6.57;4.83;;;11.00;99.90;;;;;;4081682;28;20090;-59
2023/04/17 06:09:35;;;;;;;6.30;4.67;;;11.10;99.90;;;;;;4080479;28;20052;-60
2023/04/17 06:11:36;;;;;;;6.50;5.57;;;11.10;99.90;;;;;;4081453;28;20166;-61
2023/04/17 06:13:38;;;;;;;8.87;5.10;;;11.10;99.90;;;;;;4080499;28;20466;-60
2023/04/17 06:15:39;;;;;;;6.40;4.37;;;11.10;99.90;;;;;;4080491;29;20082;-59
2023/04/17 06:17:40;;;;;;;6.63;4.73;;;11.00;99.90;;;;;;4080392;28;20051;-60
2023/04/17 06:19:41;;;;;;;6.87;5.77;;;11.00;99.90;;;;;;4081409;28;20094;-65
2023/04/17 06:21:42;;;;;;;6.40;5.33;;;11.00;99.90;;;;;;4079921;29;20024;-60
2023/04/17 06:23:45;;;;;;;9.27;5.80;;;11.00;99.90;;;;;;4080196;29;20081;-61
2023/04/17 06:25:46;;;;;;;7.37;5.20;;;10.90;99.90;;;;;;4079895;29;20036;-60
2023/04/17 06:27:47;;;;;;;11.13;8.10;;;10.90;99.90;;;;;;4079601;29;20454;-61
2023/04/17 06:29:48;;;;;;;11.00;7.83;;;10.90;99.90;;;;;;4080309;29;20427;-61
2023/04/17 06:31:49;;;;;;;9.10;7.33;;;10.90;99.90;;;;;;4080283;28;20086;-62
2023/04/17 06:33:50;;;;;;;13.13;6.97;;;10.90;99.90;;;;;;4080704;29;20499;-61
2023/04/17 06:35:52;;;;;;;9.63;7.57;;;10.90;99.90;;;;;;4080216;28;20048;-60
2023/04/17 06:37:53;;;;;;;15.73;7.77;;;10.90;99.90;;;;;;4079620;29;20078;-61
2023/04/17 06:39:54;;;;;;;8.30;6.73;;;10.90;99.90;;;;;;4079351;29;20031;-62
2023/04/17 06:41:57;;;;;;;9.63;7.17;;;10.90;99.90;;;;;;4081314;28;20040;-65
2023/04/17 06:43:58;;;;;;;10.90;8.43;;;10.90;99.90;;;;;;4079471;29;20031;-61
2023/04/17 06:45:59;;;;;;;9.00;6.80;;;11.00;99.90;;;;;;4080527;29;20043;-60
2023/04/17 06:48:00;;;;;;;9.57;7.07;;;11.00;99.90;;;;;;4079320;29;20032;-60
2023/04/17 06:50:01;;;;;;;10.00;7.07;;;11.10;99.90;;;;;;4080451;29;20621;-61
2023/04/17 06:52:02;;;;;;;11.17;6.90;;;11.10;99.90;;;;;;4080191;28;20054;-63
2023/04/17 06:54:04;;;;;;;11.50;7.93;;;11.10;99.90;;;;;;4079320;29;20032;-59
2023/04/17 06:56:05;;;;;;;11.80;7.30;;;11.10;99.90;;;;;;4079991;28;20101;-63
2023/04/17 06:58:07;;;;;;;10.53;7.07;;;11.10;99.90;;;;;;4079495;29;20048;-67
2023/04/17 07:00:09;;;;;;;12.17;8.57;;;11.20;99.90;;;;;;4079852;29;20086;-64
2023/04/17 07:02:10;;;;;;;13.20;7.67;;;11.20;99.90;;;;;;4079259;29;20028;-65
2023/04/17 07:04:12;;;;;;;14.37;8.90;;;11.20;99.90;;;;;;4080764;28;20082;-65
2023/04/17 07:06:13;;;;;;;16.67;10.90;;;11.20;99.90;;;;;;4079135;29;20055;-60
2023/04/17 07:08:14;;;;;;;14.47;8.50;;;11.20;99.90;;;;;;4079895;28;20059;-60
2023/04/17 07:10:18;;;;;;;14.37;9.47;;;11.20;99.90;;;;;;4079828;28;20043;-61
2023/04/17 07:12:19;;;;;;;11.80;8.70;;;11.30;99.90;;;;;;4081062;28;20870;-60
2023/04/17 07:14:21;;;;;;;12.43;8.40;;;11.40;99.90;;;;;;4079195;29;20085;-60
2023/04/17 07:16:23;;;;;;;12.10;8.13;;;11.60;99.90;;;;;;4079989;29;20464;-60
2023/04/17 07:18:25;;;;;;;13.50;8.10;;;11.60;99.90;;;;;;4079648;28;20089;-59
2023/04/17 07:20:26;;;;;;;9.30;6.83;;;11.80;99.90;;;;;;4080920;28;20036;-62
2023/04/17 07:22:28;;;;;;;9.70;6.43;;;11.90;99.90;;;;;;4078828;29;20032;-60
2023/04/17 07:24:33;;;;;;;8.30;6.13;;;12.00;99.90;;;;;;4063580;28;20040;-60
2023/04/17 07:26:35;;;;;;;9.53;5.87;;;12.00;99.90;;;;;;4078707;29;20083;-61
2023/04/17 07:28:37;;;;;;;6.37;5.43;;;12.10;99.90;;;;;;4080203;28;20048;-60
2023/04/17 07:30:40;;;;;;;5.93;5.07;;;12.20;99.90;;;;;;4079150;29;20035;-59
2023/04/17 07:32:41;;;;;;;8.93;5.83;;;12.20;99.90;;;;;;4079125;29;20024;-58
2023/04/17 07:34:42;;;;;;;10.30;6.20;;;12.30;99.90;;;;;;4079442;29;20474;-61
2023/04/17 07:36:44;;;;;;;12.97;8.33;;;12.40;99.90;;;;;;4079340;28;20106;-60
2023/04/17 07:38:45;;;;;;;10.03;6.07;;;12.60;99.90;;;;;;4079495;29;20415;-61
2023/04/17 07:40:46;;;;;;;8.47;5.13;;;12.70;99.90;;;;;;4077989;29;20098;-61
2023/04/17 07:42:47;;;;;;;5.63;4.50;;;12.90;99.90;;;;;;4079772;29;20090;-61
2023/04/17 07:44:49;;;;;;;5.10;3.70;;;13.20;99.90;;;;;;4079094;28;20097;-61
2023/04/17 07:46:50;;;;;;;6.63;4.40;;;13.30;99.90;;;;;;4080314;28;20089;-60
2023/04/17 07:48:51;;;;;;;6.13;4.37;;;13.40;99.90;;;;;;4078595;29;20534;-60
2023/04/17 07:50:52;;;;;;;4.70;3.50;;;13.60;99.90;;;;;;4079703;29;20031;-65
2023/04/17 07:52:54;;;;;;;5.50;4.10;;;13.90;99.90;;;;;;4079176;28;20097;-61
2023/04/17 07:54:55;;;;;;;4.90;3.97;;;14.00;99.90;;;;;;4079614;29;20081;-61
2023/04/17 07:57:01;;;;;;;6.27;4.10;;;14.20;99.90;;;;;;4078066;29;20051;-61
2023/04/17 07:59:03;;;;;;;6.83;4.20;;;14.40;99.90;;;;;;4079994;28;20040;-61
2023/04/17 08:01:04;;;;;;;6.23;3.53;;;14.40;99.90;;;;;;4079405;28;20048;-60
2023/04/17 08:03:06;;;;;;;6.10;3.23;;;14.40;99.90;;;;;;4079434;28;20113;-61
2023/04/17 08:05:08;;;;;;;4.73;3.63;;;14.40;99.90;;;;;;4078937;29;20074;-63
2023/04/17 08:07:10;;;;;;;5.27;2.87;;;14.40;99.90;;;;;;4079037;28;20044;-62
2023/04/17 08:09:11;;;;;;;4.67;3.30;;;14.40;99.90;;;;;;4079821;28;20494;-60
2023/04/17 08:11:13;;;;;;;3.63;3.23;;;14.40;99.90;;;;;;4077920;29;20039;-60
2023/04/17 08:13:14;;;;;;;3.70;3.20;;;14.40;99.90;;;;;;4079299;29;20051;-65
2023/04/17 08:15:16;;;;;;;4.97;3.25;;;14.60;99.90;;;;;;4078247;29;20032;-61
2023/04/17 08:17:22;;;;;;;5.07;3.45;;;14.80;99.90;;;;;;4079797;28;20047;-61
2023/04/17 08:19:23;;;;;;;3.95;3.45;;;15.10;99.90;;;;;;4078242;29;20039;-61
2023/04/17 08:21:25;;;;;;;5.17;3.23;;;15.10;99.90;;;;;;4079196;29;20024;-60
2023/04/17 08:23:26;;;;;;;6.45;3.47;;;15.20;99.90;;;;;;4078477;28;20047;-66
2023/04/17 08:25:27;;;;;;;3.45;3.15;;;15.20;99.90;;;;;;4079067;29;20040;-62
2023/04/17 08:27:30;;;;;;;4.07;2.80;;;15.30;99.90;;;;;;4077953;29;20031;-61
2023/04/17 08:29:31;;;;;;;5.32;3.30;;;15.30;99.90;;;;;;4078947;29;20484;-60
2023/04/17 08:31:35;;;;;;;3.47;2.83;;;15.20;99.90;;;;;;4077560;29;20035;-62
2023/04/17 08:33:36;;;;;;;4.90;3.00;;;15.20;99.90;;;;;;4079519;28;20094;-61
2023/04/17 08:35:37;;;;;;;4.40;3.63;;;15.20;99.90;;;;;;4078223;29;20534;-59
2023/04/17 08:37:39;;;;;;;5.50;3.25;;;15.20;99.90;;;;;;4078260;29;20463;-61
2023/04/17 08:39:41;;;;;;;4.90;3.03;;;15.30;99.90;;;;;;4078923;28;20035;-61
2023/04/17 08:41:48;;;;;;;3.60;2.83;;;15.40;99.90;;;;;;4077765;29;20094;-60
2023/04/17 08:43:50;;;;;;;6.10;3.50;;;15.30;99.90;;;;;;4078209;29;20094;-61
2023/04/17 08:45:55;;;;;;;5.30;3.88;;;15.10;99.90;;;;;;4077895;29;20039;-64
2023/04/17 08:47:56;;;;;;;4.60;3.47;;;15.00;99.90;;;;;;4078820;29;20082;-60
2023/04/17 08:49:57;;;;;;;4.15;3.75;;;14.90;99.90;;;;;;4077381;29;20043;-59
2023/04/17 08:52:04;;;;;;;5.45;3.90;;;14.80;99.90;;;;;;4078894;29;20035;-61
2023/04/17 08:54:05;;;;;;;5.03;3.80;;;14.90;99.90;;;;;;4077647;29;20040;-62
2023/04/17 08:56:07;;;;;;;8.40;3.92;;;14.90;99.90;;;;;;4079644;28;20047;-60
2023/04/17 08:58:08;;;;;;;4.20;3.13;;;15.10;99.90;;;;;;4078787;28;20109;-62
2023/04/17 09:00:11;;;;;;;5.65;3.40;;;15.20;99.90;;;;;;4078742;29;20043;-60
2023/04/17 09:02:12;;;;;;;6.38;3.40;;;15.20;99.90;;;;;;4078241;28;20052;-60
2023/04/17 09:04:37;;;;;;;4.25;3.30;;;15.10;99.90;;;;;;4079672;28;20040;-60
2023/04/17 09:06:51;;;;;;;6.35;3.30;;;15.00;99.90;;;;;;4077448;29;20634;-60
2023/04/17 09:09:03;;;;;;;5.38;3.25;;;14.90;99.90;;;;;;4078309;29;20059;-60
2023/04/17 09:11:16;;;;;;;3.03;2.58;;;14.90;99.90;;;;;;4077578;29;20102;-60
2023/04/17 09:13:19;;;;;;;5.32;3.70;;;15.00;99.90;;;;;;4078750;29;20036;-59
2023/04/17 09:15:20;;;;;;;5.80;3.30;;;15.20;99.90;;;;;;4077529;29;20423;-59
2023/04/17 09:17:21;;;;;;;3.30;3.00;;;15.40;99.90;;;;;;4079357;28;20051;-65
2023/04/17 09:19:22;;;;;;;3.60;3.08;;;15.40;99.90;;;;;;4079444;29;20077;-59
2023/04/17 09:21:27;;;;;;;4.60;3.35;;;15.50;99.90;;;;;;4082000;28;20450;-69
2023/04/17 09:23:31;;;;;;;4.43;3.00;;;15.60;99.90;;;;;;4080025;29;20066;-61
2023/04/17 09:25:32;;;;;;;4.32;3.15;;;15.60;99.90;;;;;;4081139;29;20036;-63
2023/04/17 09:27:33;;;;;;;4.53;3.97;;;15.60;99.90;;;;;;4080359;29;20016;-60
2023/04/17 09:30:04;;;;;;;3.20;2.90;;;15.50;99.90;;;;;;4081343;28;20062;-60
2023/04/17 09:32:15;;;;;;;4.13;3.08;;;15.50;99.90;;;;;;4080269;29;20082;-63
2023/04/17 09:34:16;;;;;;;3.65;3.25;;;15.50;99.90;;;;;;4081654;28;20553;-61
2023/04/17 09:36:20;;;;;;;5.90;2.92;;;15.60;99.90;;;;;;4080151;29;20077;-60
2023/04/17 09:38:37;;;;;;;3.35;2.60;;;15.60;99.90;;;;;;4081584;28;20051;-60
2023/04/17 09:40:40;;;;;;;6.22;3.03;;;15.50;99.90;;;;;;4080934;28;20121;-61
2023/04/17 09:42:57;;;;;;;5.53;3.10;;;15.60;99.90;;;;;;4080708;29;20534;-60
2023/04/17 09:45:18;;;;;;;6.82;2.85;;;15.70;99.90;;;;;;4079623;29;20040;-65
2023/04/17 09:47:21;;;;;;;4.55;2.58;;;15.90;99.90;;;;;;4080886;29;20036;-59
2023/04/17 09:49:51;;;;;;;4.05;2.97;;;16.10;99.90;;;;;;4079508;29;20125;-59
2023/04/17 09:51:53;;;;;;;3.90;3.00;;;16.20;99.90;;;;;;4081019;29;20449;-60
2023/04/17 09:53:56;;;;;;;7.22;3.00;;;16.30;99.90;;;;;;4079819;29;20487;-60
2023/04/17 09:56:00;;;;;;;3.20;2.67;;;16.40;99.90;;;;;;4080105;29;20443;-61
2023/04/17 09:58:03;;;;;;;4.15;2.70;;;16.30;99.90;;;;;;4079467;29;20048;-62
2023/04/17 10:00:09;;;;;;;3.38;2.40;;;16.30;99.90;;;;;;4080529;29;20479;-61
2023/04/17 10:02:15;;;;;;;2.95;2.53;;;16.30;99.90;;;;;;4080602;28;20373;-61
2023/04/17 10:04:18;;;;;;;6.55;2.67;;;16.20;99.90;;;;;;4080049;29;20546;-61
2023/04/17 10:06:19;;;;;;;5.95;2.55;;;16.30;99.90;;;;;;4080352;29;20046;-64
2023/04/17 10:08:21;;;;;;;2.28;2.03;;;16.40;99.90;;;;;;4079294;29;20090;-61
2023/04/17 10:10:32;;;;;;;3.63;2.20;;;16.20;99.90;;;;;;4080452;29;20530;-61
2023/04/17 10:12:33;;;;;;;4.47;2.45;;;16.30;99.90;;;;;;4079739;29;20074;-61
2023/04/17 10:14:39;;;;;;;2.85;2.47;;;16.30;99.90;;;;;;4081304;28;20472;-61
2023/04/17 10:16:43;;;;;;;2.95;2.40;;;16.30;99.90;;;;;;4079525;29;20036;-61
2023/04/17 10:18:45;;;;;;;4.53;3.15;;;16.30;99.90;;;;;;4080550;29;20097;-61
2023/04/17 10:20:47;;;;;;;3.80;2.20;;;16.20;99.90;;;;;;4079452;29;20035;-62
2023/04/17 10:22:53;;;;;;;3.97;2.35;;;16.50;99.90;;;;;;4080501;29;20482;-61
2023/04/17 10:25:12;;;;;;;3.65;1.83;;;16.50;99.90;;;;;;4079468;29;20035;-59
2023/04/17 10:27:26;;;;;;;6.10;2.00;;;16.60;99.90;;;;;;4080298;29;20028;-61
2023/04/17 10:29:54;;;;;;;6.75;2.00;;;16.70;99.90;;;;;;4080145;28;20044;-61
2023/04/17 10:32:08;;;;;;;2.45;1.83;;;16.70;99.90;;;;;;4077920;29;20113;-61
2023/04/17 10:34:36;;;;;;;2.35;1.90;;;16.70;99.90;;;;;;4079607;29;20036;-59
2023/04/17 10:36:37;;;;;;;3.25;2.55;;;16.70;99.90;;;;;;4079699;29;20043;-62